Time;durP1;ratioP1;P1;durP2;ratioP2;P2;SDS_P1;SDS_P2;PMS_P1;PMS_P2;Temp;Humidity;BMP_temperature;BMP_pressure;BME280_temperature;BME280_humidity;BME280_pressure;Samples;Min_cycle;Max_cycle;Signal;HPM_P1;HPM_P2
2023/10/30 00:00:47;;;;;;;4.13;0.80;;;9.60;99.90;;;;;;5067437;28;20052;-34
2023/10/30 00:03:14;;;;;;;3.58;0.50;;;9.60;99.90;;;;;;5063692;28;20056;-34
2023/10/30 00:05:40;;;;;;;2.78;0.55;;;9.60;99.90;;;;;;5066692;28;20135;-35
2023/10/30 00:08:06;;;;;;;2.17;0.60;;;9.50;99.90;;;;;;5064409;28;20593;-34
2023/10/30 00:10:34;;;;;;;3.25;0.80;;;9.50;99.90;;;;;;5063318;28;20152;-35
2023/10/30 00:13:00;;;;;;;2.88;0.70;;;9.40;99.90;;;;;;5066347;28;20060;-33
2023/10/30 00:15:25;;;;;;;3.97;0.60;;;9.40;99.90;;;;;;5062089;28;20090;-34
2023/10/30 00:17:51;;;;;;;3.03;0.70;;;9.40;99.90;;;;;;5064966;28;20143;-34
2023/10/30 00:20:17;;;;;;;3.13;0.60;;;9.40;99.90;;;;;;5061828;28;20048;-34
2023/10/30 00:22:44;;;;;;;3.72;0.60;;;9.40;99.90;;;;;;5064904;28;20448;-34
2023/10/30 00:25:09;;;;;;;4.95;1.00;;;9.40;99.90;;;;;;5067759;28;20047;-34
2023/10/30 00:27:35;;;;;;;1.90;0.70;;;9.40;99.90;;;;;;5084158;28;20045;-34
2023/10/30 00:30:01;;;;;;;3.08;0.60;;;9.40;99.90;;;;;;5084442;28;20108;-34
2023/10/30 00:32:26;;;;;;;5.88;0.80;;;9.40;99.90;;;;;;5085517;28;20483;-34
2023/10/30 00:34:52;;;;;;;2.33;0.68;;;9.40;99.90;;;;;;5091911;28;20055;-34
2023/10/30 00:37:18;;;;;;;3.03;0.60;;;9.40;99.90;;;;;;5088961;28;20182;-34
2023/10/30 00:39:43;;;;;;;3.35;0.65;;;9.40;99.90;;;;;;5082182;28;20119;-34
2023/10/30 00:42:09;;;;;;;2.17;0.70;;;9.40;99.90;;;;;;5080365;28;20047;-34
2023/10/30 00:44:37;;;;;;;3.25;0.70;;;9.30;99.90;;;;;;5092908;28;20048;-34
2023/10/30 00:47:04;;;;;;;3.17;0.65;;;9.30;99.90;;;;;;5087611;28;20043;-34
2023/10/30 00:49:30;;;;;;;2.55;0.50;;;9.30;99.90;;;;;;5086497;28;20515;-34
2023/10/30 00:51:56;;;;;;;3.47;0.77;;;9.30;99.90;;;;;;5083690;28;20158;-34
2023/10/30 00:54:22;;;;;;;2.65;0.65;;;9.20;99.90;;;;;;5088116;28;20500;-34
2023/10/30 00:56:47;;;;;;;3.88;0.70;;;9.20;99.90;;;;;;5083568;28;20059;-34
2023/10/30 00:59:13;;;;;;;3.80;0.73;;;9.20;99.90;;;;;;5086926;28;20489;-34
2023/10/30 01:01:39;;;;;;;2.88;0.70;;;9.10;99.90;;;;;;5094876;28;20058;-34
2023/10/30 01:04:05;;;;;;;4.43;0.82;;;9.20;99.90;;;;;;5085127;28;20463;-34
2023/10/30 01:06:31;;;;;;;6.68;0.93;;;9.10;99.90;;;;;;5071092;28;20409;-34
2023/10/30 01:08:56;;;;;;;4.53;0.60;;;9.10;99.90;;;;;;5080257;28;20476;-34
2023/10/30 01:11:22;;;;;;;5.43;0.80;;;9.10;99.90;;;;;;5078400;28;20052;-34
2023/10/30 01:13:48;;;;;;;2.65;0.98;;;9.10;99.90;;;;;;5086047;28;20060;-33
2023/10/30 01:16:13;;;;;;;4.80;1.35;;;9.10;99.90;;;;;;5083590;28;20059;-35
2023/10/30 01:18:39;;;;;;;4.35;0.85;;;9.00;99.90;;;;;;5085859;28;20084;-36
2023/10/30 01:21:11;;;;;;;2.72;0.68;;;9.00;99.90;;;;;;5090367;28;20074;-34
2023/10/30 01:23:37;;;;;;;2.97;0.70;;;9.00;99.90;;;;;;5084960;28;20067;-33
2023/10/30 01:26:04;;;;;;;5.00;0.93;;;8.90;99.90;;;;;;5087712;28;20060;-34
2023/10/30 01:28:29;;;;;;;5.22;0.90;;;8.90;99.90;;;;;;5089067;28;20062;-34
2023/10/30 01:30:55;;;;;;;4.82;1.00;;;8.80;99.90;;;;;;5092229;28;20051;-34
2023/10/30 01:33:22;;;;;;;2.70;0.60;;;8.80;99.90;;;;;;5084652;28;20052;-34
2023/10/30 01:35:48;;;;;;;3.22;0.60;;;8.80;99.90;;;;;;5085553;28;20460;-34
2023/10/30 01:38:14;;;;;;;4.97;1.00;;;8.80;99.90;;;;;;5088525;28;20087;-34
2023/10/30 01:40:50;;;;;;;4.30;0.75;;;8.80;99.90;;;;;;5087465;28;20522;-34
2023/10/30 01:43:27;;;;;;;4.95;1.00;;;8.80;99.90;;;;;;5094269;28;20052;-34
2023/10/30 01:45:52;;;;;;;3.40;0.98;;;8.80;99.90;;;;;;5086446;28;20060;-34
2023/10/30 01:48:18;;;;;;;6.15;1.00;;;8.80;99.90;;;;;;5084768;28;20064;-34
2023/10/30 01:50:48;;;;;;;3.97;0.82;;;8.80;99.90;;;;;;5090411;28;20055;-34
2023/10/30 01:53:15;;;;;;;5.43;1.02;;;8.80;99.90;;;;;;5085428;28;20468;-34
2023/10/30 01:55:41;;;;;;;6.00;0.95;;;8.80;99.90;;;;;;5087958;28;20047;-34
2023/10/30 01:58:08;;;;;;;6.63;1.17;;;8.80;99.90;;;;;;5085506;28;20051;-34
2023/10/30 02:00:34;;;;;;;5.13;0.90;;;8.80;99.90;;;;;;5088593;28;20052;-34
2023/10/30 02:03:00;;;;;;;5.28;0.90;;;8.80;99.90;;;;;;5087995;28;20056;-34
2023/10/30 02:05:26;;;;;;;5.43;0.80;;;8.80;99.90;;;;;;5085406;28;20131;-34
2023/10/30 02:07:51;;;;;;;4.07;1.05;;;8.80;99.90;;;;;;5067340;28;20094;-50
2023/10/30 02:10:17;;;;;;;4.30;0.90;;;8.80;99.90;;;;;;5090401;28;20048;-34
2023/10/30 02:12:43;;;;;;;6.85;0.88;;;8.70;99.90;;;;;;5086274;28;20420;-34
2023/10/30 02:15:08;;;;;;;7.18;0.90;;;8.70;99.90;;;;;;5072453;28;20055;-34
2023/10/30 02:17:34;;;;;;;7.93;0.90;;;8.80;99.90;;;;;;5086118;28;20127;-34
2023/10/30 02:20:00;;;;;;;4.68;0.90;;;8.80;99.90;;;;;;5090378;28;20072;-34
2023/10/30 02:22:26;;;;;;;6.97;1.10;;;8.80;99.90;;;;;;5088618;28;20106;-34
2023/10/30 02:24:51;;;;;;;3.20;0.60;;;8.80;99.90;;;;;;5088197;28;20106;-35
2023/10/30 02:27:17;;;;;;;4.53;0.90;;;8.90;99.90;;;;;;5084730;28;20456;-34
2023/10/30 02:29:43;;;;;;;6.25;1.10;;;8.90;99.90;;;;;;5078897;28;20658;-34
2023/10/30 02:32:09;;;;;;;6.90;0.73;;;9.00;99.90;;;;;;5087260;28;20090;-34
2023/10/30 02:34:34;;;;;;;4.38;0.80;;;9.10;99.90;;;;;;5075875;28;20072;-34
2023/10/30 02:37:02;;;;;;;6.88;0.80;;;9.10;99.90;;;;;;5078886;28;20491;-34
2023/10/30 02:39:32;;;;;;;4.35;0.80;;;9.00;99.90;;;;;;5076716;28;20143;-34
2023/10/30 02:41:59;;;;;;;7.95;0.90;;;9.10;99.90;;;;;;5080698;28;20287;-34
2023/10/30 02:44:25;;;;;;;3.25;0.80;;;9.10;99.90;;;;;;5077710;28;20048;-34
2023/10/30 02:46:51;;;;;;;4.90;0.82;;;9.10;99.90;;;;;;5082257;28;20055;-34
2023/10/30 02:49:16;;;;;;;8.13;0.90;;;9.00;99.90;;;;;;5066588;28;20551;-34
2023/10/30 02:51:42;;;;;;;8.38;1.20;;;9.00;99.90;;;;;;5082310;28;20048;-34
2023/10/30 02:54:08;;;;;;;8.10;0.90;;;9.00;99.90;;;;;;5085519;28;20062;-34
2023/10/30 02:56:33;;;;;;;5.93;0.77;;;9.00;99.90;;;;;;5087455;28;20055;-34
2023/10/30 02:58:59;;;;;;;6.18;0.77;;;9.10;99.90;;;;;;5075035;28;20056;-34
2023/10/30 03:01:26;;;;;;;5.50;0.80;;;9.00;99.90;;;;;;5089641;28;20406;-34
2023/10/30 03:03:52;;;;;;;5.07;0.80;;;9.10;99.90;;;;;;5079257;28;20398;-34
2023/10/30 03:06:17;;;;;;;6.07;0.90;;;9.00;99.90;;;;;;5086828;28;20147;-34
2023/10/30 03:08:43;;;;;;;5.53;1.00;;;9.00;99.90;;;;;;5076882;28;20052;-34
2023/10/30 03:11:09;;;;;;;6.80;1.10;;;9.00;99.90;;;;;;5075721;28;21034;-34
2023/10/30 03:13:35;;;;;;;8.38;1.10;;;9.00;99.90;;;;;;5087491;28;20052;-34
2023/10/30 03:16:00;;;;;;;4.25;0.93;;;9.00;99.90;;;;;;5081747;28;20083;-43
2023/10/30 03:18:26;;;;;;;9.10;1.10;;;9.00;99.90;;;;;;5099873;28;20055;-38
2023/10/30 03:20:51;;;;;;;7.50;0.93;;;9.00;99.90;;;;;;5075937;28;20162;-34
2023/10/30 03:23:17;;;;;;;5.03;0.90;;;9.00;99.90;;;;;;5089722;28;20078;-34
2023/10/30 03:25:43;;;;;;;5.93;0.75;;;9.00;99.90;;;;;;5074840;28;20062;-34
2023/10/30 03:28:08;;;;;;;8.00;0.82;;;9.00;99.90;;;;;;5068462;28;20055;-34
2023/10/30 03:30:35;;;;;;;6.90;1.08;;;9.00;99.90;;;;;;5061067;28;20052;-34
2023/10/30 03:33:02;;;;;;;9.02;0.82;;;9.00;99.90;;;;;;5065295;28;20656;-34
2023/10/30 03:35:28;;;;;;;5.07;0.77;;;9.00;99.90;;;;;;5067532;28;20486;-34
2023/10/30 03:37:53;;;;;;;4.75;1.08;;;9.00;99.90;;;;;;5057128;28;20055;-34
2023/10/30 03:40:19;;;;;;;10.75;1.10;;;9.00;99.90;;;;;;5063052;28;20055;-34
2023/10/30 03:42:44;;;;;;;4.63;0.80;;;9.00;99.90;;;;;;5062234;28;20066;-34
2023/10/30 03:45:10;;;;;;;6.55;1.15;;;9.10;99.90;;;;;;5066556;28;20061;-34
2023/10/30 03:47:36;;;;;;;8.13;1.10;;;9.10;99.90;;;;;;5071693;28;20445;-34
2023/10/30 03:50:01;;;;;;;7.18;0.82;;;9.10;99.90;;;;;;5066688;28;20066;-34
2023/10/30 03:52:27;;;;;;;6.43;0.80;;;9.10;99.90;;;;;;5071332;28;20056;-37
2023/10/30 03:54:53;;;;;;;7.15;1.50;;;9.20;99.90;;;;;;5069559;28;20097;-34
2023/10/30 03:57:18;;;;;;;5.63;0.90;;;9.20;99.90;;;;;;5071138;28;20044;-34
2023/10/30 03:59:44;;;;;;;8.45;1.20;;;9.20;99.90;;;;;;5061325;28;20087;-34
2023/10/30 04:02:10;;;;;;;9.05;1.20;;;9.20;99.90;;;;;;5062622;28;20426;-34
2023/10/30 04:04:36;;;;;;;6.55;1.02;;;9.20;99.90;;;;;;5061067;28;20041;-34
2023/10/30 04:07:02;;;;;;;4.00;0.80;;;9.20;99.90;;;;;;5062224;28;20072;-34
2023/10/30 04:09:29;;;;;;;6.07;1.00;;;9.20;99.90;;;;;;5064117;28;20040;-34
2023/10/30 04:11:54;;;;;;;5.50;1.05;;;9.20;99.90;;;;;;5062824;28;20109;-34
2023/10/30 04:14:20;;;;;;;8.38;1.17;;;9.20;99.90;;;;;;5065472;28;20456;-34
2023/10/30 04:16:46;;;;;;;8.20;0.90;;;9.30;99.90;;;;;;5064198;28;20075;-34
2023/10/30 04:19:11;;;;;;;6.90;1.30;;;9.30;99.90;;;;;;5048311;28;20135;-34
2023/10/30 04:21:37;;;;;;;7.35;1.10;;;9.30;99.90;;;;;;5067952;28;20135;-34
2023/10/30 04:24:03;;;;;;;7.18;1.13;;;9.30;99.90;;;;;;5063281;28;20056;-34
2023/10/30 04:26:28;;;;;;;7.18;1.40;;;9.20;99.90;;;;;;5067808;28;20067;-35
2023/10/30 04:28:54;;;;;;;6.80;1.00;;;9.20;99.90;;;;;;5066817;28;20048;-34
2023/10/30 04:31:19;;;;;;;6.22;1.00;;;9.20;99.90;;;;;;5065337;28;20115;-34
2023/10/30 04:33:45;;;;;;;7.90;1.05;;;9.20;99.90;;;;;;5062855;28;20515;-34
2023/10/30 04:36:12;;;;;;;4.47;0.90;;;9.20;99.90;;;;;;5061504;28;20106;-34
2023/10/30 04:38:38;;;;;;;11.25;1.02;;;9.10;99.90;;;;;;5064957;28;20091;-34
2023/10/30 04:41:04;;;;;;;8.00;1.02;;;9.10;99.90;;;;;;5065256;28;20057;-34
2023/10/30 04:43:34;;;;;;;7.35;0.73;;;9.10;99.90;;;;;;5067398;28;20065;-35
2023/10/30 04:46:00;;;;;;;6.97;0.80;;;9.10;99.90;;;;;;5063624;28;20083;-41
2023/10/30 04:48:26;;;;;;;9.45;1.65;;;9.10;99.90;;;;;;5061508;28;20083;-34
2023/10/30 04:50:52;;;;;;;8.15;0.98;;;9.10;99.90;;;;;;5065118;28;20127;-34
2023/10/30 04:53:17;;;;;;;5.43;1.23;;;9.10;99.90;;;;;;5071946;28;20052;-34
2023/10/30 04:55:43;;;;;;;8.05;0.90;;;9.10;99.90;;;;;;5066357;28;20406;-34
2023/10/30 04:58:08;;;;;;;7.85;0.88;;;9.10;99.90;;;;;;5062282;28;20063;-34
2023/10/30 05:00:35;;;;;;;9.00;0.95;;;9.10;99.90;;;;;;5056691;28;20152;-34
2023/10/30 05:03:01;;;;;;;10.23;1.00;;;9.10;99.90;;;;;;5065266;28;20055;-36
2023/10/30 05:05:28;;;;;;;9.40;1.40;;;9.10;99.90;;;;;;5066350;28;20123;-34
2023/10/30 05:07:53;;;;;;;8.38;1.08;;;9.10;99.90;;;;;;5062948;28;20059;-34
2023/10/30 05:10:19;;;;;;;7.70;1.05;;;9.10;99.90;;;;;;5064191;28;20052;-34
2023/10/30 05:12:44;;;;;;;6.85;0.70;;;9.10;99.90;;;;;;5073898;28;20055;-34
2023/10/30 05:15:10;;;;;;;12.27;1.20;;;9.00;99.90;;;;;;5053251;28;20079;-35
2023/10/30 05:17:40;;;;;;;6.78;0.95;;;9.00;99.90;;;;;;5069305;28;20068;-34
2023/10/30 05:20:06;;;;;;;7.30;0.90;;;9.00;99.90;;;;;;5069624;28;20452;-35
2023/10/30 05:22:32;;;;;;;7.93;1.13;;;8.90;99.90;;;;;;5069116;28;20494;-34
2023/10/30 05:24:58;;;;;;;4.43;0.80;;;8.90;99.90;;;;;;5067612;28;20406;-34
2023/10/30 05:27:27;;;;;;;3.55;0.80;;;8.90;99.90;;;;;;5076938;28;20048;-35
2023/10/30 05:29:53;;;;;;;7.45;0.90;;;8.80;99.90;;;;;;5074476;28;20097;-34
2023/10/30 05:32:19;;;;;;;7.60;1.00;;;8.80;99.90;;;;;;5049973;28;20052;-34
2023/10/30 05:34:46;;;;;;;10.00;1.20;;;8.80;99.90;;;;;;5084743;28;20056;-34
2023/10/30 05:37:12;;;;;;;8.82;1.00;;;8.80;99.90;;;;;;5059356;28;20399;-34
2023/10/30 05:39:38;;;;;;;7.78;0.90;;;8.80;99.90;;;;;;5074909;28;20081;-34
2023/10/30 05:42:04;;;;;;;11.07;1.27;;;8.80;99.90;;;;;;5070496;28;20048;-34
2023/10/30 05:44:30;;;;;;;8.38;1.17;;;8.80;99.90;;;;;;5086269;28;20097;-34
2023/10/30 05:46:57;;;;;;;9.30;1.08;;;8.70;99.90;;;;;;5081261;28;20087;-34
2023/10/30 05:49:22;;;;;;;11.57;1.10;;;8.70;99.90;;;;;;5087859;28;20051;-34
2023/10/30 05:51:48;;;;;;;9.30;1.10;;;8.70;99.90;;;;;;5078459;28;20065;-34
2023/10/30 05:54:14;;;;;;;5.50;1.02;;;8.70;99.90;;;;;;5072220;28;20430;-34
2023/10/30 05:56:39;;;;;;;6.30;0.88;;;8.70;99.90;;;;;;5085857;28;21881;-35
2023/10/30 05:59:05;;;;;;;3.67;1.10;;;8.70;99.90;;;;;;5079937;28;20052;-34
2023/10/30 06:01:31;;;;;;;8.48;0.98;;;8.70;99.90;;;;;;5060687;28;20056;-34
2023/10/30 06:03:56;;;;;;;9.02;1.10;;;8.80;99.90;;;;;;5069795;28;20053;-34
2023/10/30 06:06:22;;;;;;;6.35;1.20;;;8.80;99.90;;;;;;5078399;28;20040;-34
2023/10/30 06:08:48;;;;;;;7.25;1.40;;;8.80;99.90;;;;;;5074413;28;20044;-34
2023/10/30 06:11:13;;;;;;;8.13;0.90;;;8.80;99.90;;;;;;5079448;28;20489;-34
2023/10/30 06:13:39;;;;;;;11.93;1.63;;;8.90;99.90;;;;;;5083380;28;20079;-34
2023/10/30 06:16:05;;;;;;;8.23;1.10;;;8.80;99.90;;;;;;5079178;28;20089;-34
2023/10/30 06:18:30;;;;;;;6.97;0.70;;;8.80;99.90;;;;;;5086314;28;20055;-34
2023/10/30 06:20:56;;;;;;;10.23;1.23;;;8.80;99.90;;;;;;5074934;28;20135;-34
2023/10/30 06:23:22;;;;;;;9.50;1.33;;;8.90;99.90;;;;;;5087301;28;20044;-34
2023/10/30 06:25:48;;;;;;;7.90;1.52;;;8.90;99.90;;;;;;5079210;28;20186;-34
2023/10/30 06:28:15;;;;;;;5.22;1.13;;;8.90;99.90;;;;;;5076085;28;20495;-34
2023/10/30 06:30:41;;;;;;;7.32;1.00;;;8.90;99.90;;;;;;5072863;28;20059;-37
2023/10/30 06:33:07;;;;;;;6.47;0.90;;;8.90;99.90;;;;;;5074766;28;20057;-35
2023/10/30 06:35:32;;;;;;;7.07;1.45;;;8.90;99.90;;;;;;5082508;28;20486;-34
2023/10/30 06:37:58;;;;;;;5.43;0.88;;;8.90;99.90;;;;;;5064480;28;20095;-35
2023/10/30 06:40:24;;;;;;;8.40;1.20;;;8.90;99.90;;;;;;5074718;28;20435;-34
2023/10/30 06:42:49;;;;;;;7.43;1.05;;;8.90;99.90;;;;;;5072412;28;20047;-35
2023/10/30 06:45:15;;;;;;;8.10;0.90;;;9.00;99.90;;;;;;5089500;28;20664;-35
2023/10/30 06:47:40;;;;;;;6.25;1.05;;;9.00;99.90;;;;;;5090107;28;20497;-35
2023/10/30 06:50:06;;;;;;;10.27;1.23;;;9.00;99.90;;;;;;5073759;28;20059;-35
2023/10/30 06:52:32;;;;;;;6.68;1.08;;;9.00;99.90;;;;;;5065652;28;20049;-35
2023/10/30 06:54:58;;;;;;;6.60;1.10;;;9.00;99.90;;;;;;5079442;28;20040;-35
2023/10/30 06:57:23;;;;;;;7.10;1.05;;;9.00;99.90;;;;;;5080663;28;20055;-35
2023/10/30 06:59:52;;;;;;;5.88;1.10;;;9.00;99.90;;;;;;5076134;28;20131;-35
2023/10/30 07:02:18;;;;;;;9.23;1.27;;;9.00;99.90;;;;;;5073692;28;20044;-35
2023/10/30 07:04:44;;;;;;;7.43;1.05;;;9.00;99.90;;;;;;5065979;28;20040;-35
2023/10/30 07:07:09;;;;;;;6.38;1.40;;;9.00;99.90;;;;;;5077776;28;20060;-38
2023/10/30 07:09:35;;;;;;;11.00;1.40;;;9.00;99.90;;;;;;5068455;28;20060;-35
2023/10/30 07:12:01;;;;;;;14.68;1.35;;;9.00;99.90;;;;;;5081274;28;20055;-35
2023/10/30 07:14:26;;;;;;;7.40;1.00;;;9.10;99.90;;;;;;5086321;28;20493;-35
2023/10/30 07:16:52;;;;;;;10.00;1.48;;;9.10;99.90;;;;;;5078933;28;20052;-35
2023/10/30 07:19:22;;;;;;;10.20;1.85;;;9.10;99.90;;;;;;5078723;28;20051;-34
2023/10/30 07:21:47;;;;;;;6.80;1.00;;;9.20;99.90;;;;;;5073775;28;20085;-35
2023/10/30 07:24:13;;;;;;;7.25;1.42;;;9.20;99.90;;;;;;5081288;28;20048;-35
2023/10/30 07:26:39;;;;;;;5.20;0.70;;;9.20;99.90;;;;;;5084750;28;20067;-35
2023/10/30 07:29:04;;;;;;;9.38;1.20;;;9.30;99.90;;;;;;5070270;28;20048;-35
2023/10/30 07:31:30;;;;;;;7.30;1.25;;;9.30;99.90;;;;;;5084443;28;20057;-35
2023/10/30 07:33:58;;;;;;;7.78;1.40;;;9.30;99.90;;;;;;5070349;28;20499;-35
2023/10/30 07:36:26;;;;;;;9.00;1.27;;;9.40;99.90;;;;;;5075139;28;20052;-35
2023/10/30 07:38:51;;;;;;;11.43;1.42;;;9.40;99.90;;;;;;5062953;28;20048;-35
2023/10/30 07:41:17;;;;;;;8.35;1.08;;;9.50;99.90;;;;;;5066638;28;20098;-35
2023/10/30 07:43:43;;;;;;;6.13;1.05;;;9.50;99.90;;;;;;5073722;28;20036;-35
2023/10/30 07:46:12;;;;;;;5.93;1.10;;;9.50;99.90;;;;;;5078103;28;20094;-34
2023/10/30 07:48:38;;;;;;;5.82;1.52;;;9.60;99.90;;;;;;5077192;28;20130;-35
2023/10/30 07:51:05;;;;;;;6.65;1.20;;;9.60;99.90;;;;;;5081969;28;20514;-34
2023/10/30 07:53:31;;;;;;;6.40;0.82;;;9.70;99.90;;;;;;5076963;28;20062;-34
2023/10/30 07:55:57;;;;;;;9.23;1.98;;;9.70;99.90;;;;;;5075467;28;20147;-34
2023/10/30 07:58:23;;;;;;;7.53;1.27;;;9.80;99.90;;;;;;5077739;28;20102;-35
2023/10/30 08:00:49;;;;;;;8.07;1.40;;;9.80;99.90;;;;;;5079539;28;20137;-35
2023/10/30 08:03:14;;;;;;;8.20;1.40;;;9.80;99.90;;;;;;5063171;28;20490;-35
2023/10/30 08:05:43;;;;;;;7.15;1.60;;;9.90;99.90;;;;;;5075289;28;20060;-35
2023/10/30 08:08:09;;;;;;;8.82;1.25;;;10.00;99.90;;;;;;5075319;28;20055;-35
2023/10/30 08:10:35;;;;;;;3.85;0.77;;;10.00;99.90;;;;;;5073766;28;20103;-34
2023/10/30 08:13:00;;;;;;;8.07;1.30;;;10.10;99.90;;;;;;5072771;28;20058;-35
2023/10/30 08:15:26;;;;;;;7.90;1.63;;;10.10;99.90;;;;;;5067280;28;20076;-35
2023/10/30 08:17:53;;;;;;;5.40;1.00;;;10.20;99.90;;;;;;5067960;28;20044;-35
2023/10/30 08:20:22;;;;;;;9.43;1.27;;;10.20;99.90;;;;;;5071211;28;20292;-39
2023/10/30 08:22:47;;;;;;;7.40;1.20;;;10.30;99.90;;;;;;5045879;28;20406;-36
2023/10/30 08:25:13;;;;;;;6.65;1.27;;;10.40;99.90;;;;;;5060130;28;20118;-35
2023/10/30 08:27:39;;;;;;;8.70;1.55;;;10.40;99.90;;;;;;5053547;28;20051;-35
2023/10/30 08:30:06;;;;;;;9.35;1.20;;;10.50;99.90;;;;;;5058105;28;20040;-35
2023/10/30 08:32:31;;;;;;;6.60;1.10;;;10.60;99.90;;;;;;5065356;28;20060;-35
2023/10/30 08:35:01;;;;;;;7.82;1.10;;;10.60;99.90;;;;;;5060962;28;20422;-35
2023/10/30 08:37:27;;;;;;;9.48;1.75;;;10.70;99.90;;;;;;5057878;28;20048;-35
2023/10/30 08:39:52;;;;;;;9.48;1.00;;;10.80;99.90;;;;;;5057874;28;20044;-35
2023/10/30 08:42:18;;;;;;;8.25;1.45;;;10.90;99.90;;;;;;5060184;28;20048;-39
2023/10/30 08:44:43;;;;;;;4.35;0.90;;;11.00;99.90;;;;;;5060881;28;20567;-35
2023/10/30 08:47:09;;;;;;;4.30;0.80;;;11.00;99.90;;;;;;5064986;28;20542;-35
2023/10/30 08:49:34;;;;;;;7.78;1.10;;;11.10;99.90;;;;;;5065907;28;20072;-35
2023/10/30 08:52:00;;;;;;;9.25;1.80;;;11.20;99.90;;;;;;5058608;28;20056;-35
2023/10/30 08:54:26;;;;;;;8.05;0.93;;;11.30;99.90;;;;;;5063964;28;20479;-35
2023/10/30 08:56:52;;;;;;;5.63;1.98;;;11.40;99.90;;;;;;5072119;28;20092;-35
2023/10/30 08:59:18;;;;;;;6.25;1.20;;;11.50;99.90;;;;;;5063684;28;20412;-35
2023/10/30 09:01:44;;;;;;;8.85;1.17;;;11.60;99.90;;;;;;5062093;28;20047;-35
2023/10/30 09:04:10;;;;;;;6.50;1.02;;;11.70;99.90;;;;;;5056016;28;20385;-35
2023/10/30 09:06:35;;;;;;;7.72;1.70;;;11.80;99.90;;;;;;5068702;28;20059;-35
2023/10/30 09:09:01;;;;;;;8.80;0.95;;;11.90;99.90;;;;;;5068992;28;20056;-35
2023/10/30 09:11:27;;;;;;;11.27;1.27;;;11.90;99.90;;;;;;5062291;28;20426;-35
2023/10/30 09:13:53;;;;;;;5.82;1.17;;;12.10;99.90;;;;;;5074368;28;20526;-44
2023/10/30 09:16:19;;;;;;;7.85;1.30;;;12.20;99.90;;;;;;5064662;28;20056;-35
2023/10/30 09:18:45;;;;;;;5.63;0.93;;;12.30;99.90;;;;;;5059971;28;20053;-35
2023/10/30 09:21:11;;;;;;;8.15;2.60;;;12.30;99.90;;;;;;5060291;28;20497;-35
2023/10/30 09:23:40;;;;;;;8.45;1.05;;;12.40;99.90;;;;;;5040145;28;20151;-34
2023/10/30 09:26:06;;;;;;;8.80;1.13;;;12.40;99.90;;;;;;5072952;28;20159;-35
2023/10/30 09:28:31;;;;;;;9.10;1.20;;;12.40;99.90;;;;;;5078401;28;20090;-35
2023/10/30 09:30:57;;;;;;;6.15;1.02;;;12.40;99.90;;;;;;5078800;28;20135;-43
2023/10/30 09:33:23;;;;;;;6.60;1.40;;;12.40;99.90;;;;;;5076614;28;20068;-35
2023/10/30 09:35:48;;;;;;;7.22;1.08;;;12.30;99.90;;;;;;5050570;28;20304;-35
2023/10/30 09:38:14;;;;;;;7.88;1.13;;;12.20;99.90;;;;;;5081484;28;20109;-35
2023/10/30 09:40:40;;;;;;;9.98;1.15;;;12.10;99.90;;;;;;5083270;28;20054;-35
2023/10/30 09:43:09;;;;;;;10.75;1.60;;;12.10;99.90;;;;;;5080036;28;20052;-35
2023/10/30 09:45:37;;;;;;;8.73;1.27;;;12.00;99.90;;;;;;5061947;28;20059;-35
2023/10/30 09:48:04;;;;;;;8.85;1.42;;;12.00;99.90;;;;;;5075590;28;20169;-35
2023/10/30 09:50:31;;;;;;;6.32;0.95;;;11.90;99.90;;;;;;5076061;28;20049;-34
2023/10/30 09:52:57;;;;;;;8.48;1.20;;;11.80;99.90;;;;;;5082663;28;20048;-35
2023/10/30 09:55:25;;;;;;;6.40;1.45;;;11.80;99.90;;;;;;5067444;28;21374;-35
2023/10/30 09:57:52;;;;;;;6.40;1.10;;;11.70;99.90;;;;;;5074841;28;20047;-35
2023/10/30 10:00:19;;;;;;;6.00;1.15;;;11.70;99.90;;;;;;5064417;28;20044;-35
2023/10/30 10:02:46;;;;;;;6.80;1.00;;;11.70;99.90;;;;;;5073185;28;20083;-35
2023/10/30 10:05:13;;;;;;;7.93;1.17;;;11.80;99.90;;;;;;5079356;28;20139;-35
2023/10/30 10:07:40;;;;;;;7.65;1.30;;;11.90;99.90;;;;;;5075680;28;20131;-35
2023/10/30 10:10:10;;;;;;;9.73;1.17;;;12.00;99.90;;;;;;5086506;28;20089;-35
2023/10/30 10:12:36;;;;;;;5.55;1.10;;;12.00;99.90;;;;;;5059043;28;20071;-35
2023/10/30 10:15:06;;;;;;;7.90;1.20;;;12.10;99.90;;;;;;5065101;28;20059;-35
2023/10/30 10:17:42;;;;;;;8.93;1.10;;;12.10;99.90;;;;;;5077875;28;20048;-35
2023/10/30 10:20:08;;;;;;;4.43;0.85;;;12.20;99.90;;;;;;5073529;28;20509;-34
2023/10/30 10:22:34;;;;;;;11.50;1.30;;;12.20;99.90;;;;;;5078805;28;20501;-35
2023/10/30 10:25:00;;;;;;;7.78;1.13;;;12.30;99.90;;;;;;5075408;28;20048;-35
2023/10/30 10:27:27;;;;;;;8.57;1.40;;;12.40;99.90;;;;;;5069165;28;20049;-35
2023/10/30 10:29:54;;;;;;;7.55;1.10;;;12.50;99.90;;;;;;5084212;28;20043;-34
2023/10/30 10:32:26;;;;;;;10.25;1.20;;;12.60;99.90;;;;;;5084685;28;20052;-34
2023/10/30 10:34:54;;;;;;;11.55;1.30;;;12.70;99.90;;;;;;5082621;28;20043;-33
2023/10/30 10:37:20;;;;;;;10.27;1.65;;;12.80;99.90;;;;;;5075367;28;21117;-33
2023/10/30 10:39:50;;;;;;;6.63;1.20;;;12.80;99.90;;;;;;5085376;28;20091;-34
2023/10/30 10:42:18;;;;;;;10.45;1.17;;;12.80;99.90;;;;;;5074869;28;20137;-34
2023/10/30 10:44:45;;;;;;;9.55;1.27;;;12.80;99.90;;;;;;5063913;28;20151;-34
2023/10/30 10:47:11;;;;;;;7.40;1.15;;;12.80;99.90;;;;;;5082881;28;20130;-34
2023/10/30 10:49:37;;;;;;;6.88;1.20;;;12.80;99.90;;;;;;5084308;28;20417;-34
2023/10/30 10:52:07;;;;;;;6.28;1.15;;;12.90;99.90;;;;;;5080998;28;20052;-34
2023/10/30 10:54:39;;;;;;;5.22;1.15;;;13.00;99.90;;;;;;5075717;28;20278;-34
2023/10/30 10:57:08;;;;;;;6.18;1.05;;;13.10;99.90;;;;;;5082248;28;20051;-33
2023/10/30 10:59:36;;;;;;;12.02;1.55;;;13.10;99.90;;;;;;5081350;28;20200;-33
2023/10/30 11:02:12;;;;;;;6.85;1.00;;;13.20;99.90;;;;;;5063244;28;20101;-34
2023/10/30 11:04:39;;;;;;;7.50;0.82;;;13.10;99.90;;;;;;5078108;28;20133;-34
2023/10/30 11:07:09;;;;;;;11.82;1.20;;;13.20;99.90;;;;;;5071881;28;20064;-34
2023/10/30 11:09:44;;;;;;;7.88;1.17;;;13.10;99.90;;;;;;5079223;28;20052;-34
2023/10/30 11:12:30;;;;;;;8.05;1.40;;;13.00;99.90;;;;;;5052609;28;20052;-34
2023/10/30 11:15:09;;;;;;;9.52;1.20;;;13.00;99.90;;;;;;5064421;28;20083;-34
2023/10/30 11:17:36;;;;;;;10.23;1.40;;;12.90;99.90;;;;;;5073972;28;20693;-34
2023/10/30 11:20:08;;;;;;;10.95;1.58;;;12.90;99.90;;;;;;5086594;28;20052;-34
2023/10/30 11:22:37;;;;;;;10.18;1.17;;;12.90;99.90;;;;;;5075264;28;20121;-34
2023/10/30 11:25:03;;;;;;;9.35;1.80;;;13.00;99.90;;;;;;5086329;28;20064;-34
2023/10/30 11:27:29;;;;;;;9.07;1.13;;;13.00;99.90;;;;;;5083227;28;20048;-34
2023/10/30 11:29:57;;;;;;;8.60;1.23;;;13.10;99.90;;;;;;5078528;28;20551;-40
2023/10/30 11:32:29;;;;;;;8.13;1.00;;;13.20;99.90;;;;;;5088922;28;20044;-34
2023/10/30 11:34:55;;;;;;;8.02;0.90;;;13.40;99.90;;;;;;5084758;28;20105;-35
2023/10/30 11:37:22;;;;;;;9.15;1.95;;;13.50;99.90;;;;;;5079243;28;20056;-34
2023/10/30 11:39:50;;;;;;;6.18;1.05;;;13.50;99.90;;;;;;5086677;28;20409;-34
2023/10/30 11:42:22;;;;;;;5.88;1.10;;;13.60;99.90;;;;;;5076597;28;20048;-34
2023/10/30 11:44:48;;;;;;;6.57;0.88;;;13.50;99.90;;;;;;5078251;28;20044;-34
2023/10/30 11:47:13;;;;;;;8.77;1.25;;;13.50;99.90;;;;;;5089689;28;20081;-34
2023/10/30 11:49:41;;;;;;;8.48;1.05;;;13.50;99.90;;;;;;5087201;28;20051;-34
2023/10/30 11:52:10;;;;;;;7.22;0.95;;;13.50;99.90;;;;;;5080140;28;20060;-35
2023/10/30 11:54:39;;;;;;;11.50;1.30;;;13.50;99.90;;;;;;5071215;28;20197;-34
2023/10/30 11:57:05;;;;;;;10.75;0.98;;;13.50;99.90;;;;;;5080141;28;20055;-34
2023/10/30 11:59:31;;;;;;;9.82;1.30;;;13.50;99.90;;;;;;5069864;28;20365;-34
2023/10/30 12:01:57;;;;;;;6.97;1.00;;;13.60;99.90;;;;;;5079697;28;20051;-34
2023/10/30 12:04:24;;;;;;;4.95;0.80;;;13.50;99.90;;;;;;5069793;28;20050;-34
2023/10/30 12:06:50;;;;;;;5.55;0.90;;;13.50;99.90;;;;;;5078179;28;20051;-34
2023/10/30 12:09:17;;;;;;;4.32;0.98;;;13.60;99.90;;;;;;5076063;28;20044;-33
2023/10/30 12:11:43;;;;;;;6.78;0.90;;;13.60;99.90;;;;;;5075505;28;20055;-38
2023/10/30 12:14:11;;;;;;;5.63;1.02;;;13.60;99.90;;;;;;5075130;28;20048;-34
2023/10/30 12:16:37;;;;;;;7.55;1.70;;;13.60;99.90;;;;;;5079046;28;20048;-33
2023/10/30 12:19:03;;;;;;;7.43;0.98;;;13.60;99.90;;;;;;5070572;28;20502;-34
2023/10/30 12:21:32;;;;;;;7.55;0.82;;;13.60;99.90;;;;;;5070460;28;20076;-34
2023/10/30 12:23:59;;;;;;;6.78;0.90;;;13.60;99.90;;;;;;5075577;28;20055;-33
2023/10/30 12:26:27;;;;;;;8.73;1.10;;;13.60;99.90;;;;;;5070014;28;20052;-33
2023/10/30 12:28:59;;;;;;;8.20;1.58;;;13.60;99.90;;;;;;5062743;28;20605;-34
2023/10/30 12:31:26;;;;;;;7.07;1.10;;;13.60;99.90;;;;;;5068317;28;20096;-34
2023/10/30 12:34:11;;;;;;;7.75;1.30;;;13.60;99.90;;;;;;5069395;28;20563;-33
2023/10/30 12:36:38;;;;;;;5.15;0.98;;;13.70;99.90;;;;;;5078885;28;20052;-34
2023/10/30 12:39:15;;;;;;;6.00;0.95;;;13.70;99.90;;;;;;5076217;28;20056;-34
2023/10/30 12:41:41;;;;;;;8.93;1.30;;;13.70;99.90;;;;;;5072909;28;20083;-33
2023/10/30 12:44:07;;;;;;;8.07;0.82;;;13.80;99.90;;;;;;5078513;28;20075;-34
2023/10/30 12:46:33;;;;;;;8.95;1.58;;;13.90;99.90;;;;;;5072843;28;20111;-33
2023/10/30 12:48:59;;;;;;;8.02;1.58;;;13.90;99.90;;;;;;5085262;28;20052;-34